VDSR

Siem Reap International Airport

Airport
ICAO code
VDSR
IATA Code
REP
Summary
ICAO Region
APAC
ICAO Territory
Location

Siem Reap, Siem Reap

Serving
Siem Reap
Elevation
60 ft
Coordinates
13° 24' 42" N , 103° 48' 47" E
KCC
Aw
Metar
Observation
VDSR 081030Z 26008KT 7000 SCT015 BKN040 25/24 Q1004
Station
Siemreap
Date/Time
2022-08-08 10:30:00
Wind direction
260°
Wind speed
08 kts
Lowest cloud amount
scattered clouds
Temperature
25°C
Dew point
24°C
Humidity
94%
QNH
1004 hPa
Weather condition
n/a

Siem Reap International Airport is the airport in Cambodia handling the greatest number of passengers. It is located in Siem Reap, home of Angkor Wat.

Climatology

Tropical Savanna climate (Köppen climate classification Aw)

Airport map

Aerial View

SKYbrary Partners:

Safety knowledge contributed by: